Time;durP1;ratioP1;P1;durP2;ratioP2;P2;SDS_P1;SDS_P2;PMS_P1;PMS_P2;Temp;Humidity;BMP_temperature;BMP_pressure;BME280_temperature;BME280_humidity;BME280_pressure;Samples;Min_cycle;Max_cycle;Signal;HPM_P1;HPM_P2
2021/03/16 00:00:42;;;;;;;15.02;2.55;;;;;;;;;;5137628;27;20042;-76
2021/03/16 00:03:26;;;;;;;22.88;3.35;;;;;;;;;;5138547;27;20050;-76
2021/03/16 00:06:05;;;;;;;12.75;2.90;;;;;;;;;;5104370;27;20027;-76
2021/03/16 00:08:31;;;;;;;22.58;4.03;;;;;;;;;;5137817;27;20084;-76
2021/03/16 00:10:56;;;;;;;18.63;4.18;;;;;;;;;;5138661;27;20035;-76
2021/03/16 00:13:21;;;;;;;20.85;3.78;;;;;;;;;;5119355;27;20039;-76
2021/03/16 00:15:47;;;;;;;23.60;3.75;;;;;;;;;;5137787;27;20042;-76
2021/03/16 00:18:15;;;;;;;19.60;4.35;;;;;;;;;;5137497;27;20095;-76
2021/03/16 00:20:45;;;;;;;16.23;3.58;;;;;;;;;;5137217;27;20030;-76
2021/03/16 00:23:11;;;;;;;15.45;2.80;;;;;;;;;;5138023;27;20027;-76
2021/03/16 00:25:37;;;;;;;18.13;3.78;;;;;;;;;;5138917;27;20031;-76
2021/03/16 00:28:04;;;;;;;22.80;3.60;;;;;;;;;;5138771;27;20035;-76
2021/03/16 00:30:30;;;;;;;24.73;4.85;;;;;;;;;;5137633;27;20031;-76
2021/03/16 00:32:56;;;;;;;21.50;5.38;;;;;;;;;;5138077;27;20128;-76
2021/03/16 00:35:22;;;;;;;17.48;4.65;;;;;;;;;;5137821;27;20037;-76
2021/03/16 00:37:48;;;;;;;11.13;3.22;;;;;;;;;;5137839;27;20031;-76
2021/03/16 00:40:14;;;;;;;20.55;3.67;;;;;;;;;;5138161;27;20521;-76
2021/03/16 00:42:40;;;;;;;18.98;3.33;;;;;;;;;;5138374;27;20039;-76
2021/03/16 00:45:06;;;;;;;13.57;2.35;;;;;;;;;;5119679;27;20042;-76
2021/03/16 00:47:32;;;;;;;12.38;2.53;;;;;;;;;;5138071;27;20031;-76
2021/03/16 00:49:58;;;;;;;12.15;2.75;;;;;;;;;;5119385;27;20472;-76
2021/03/16 00:52:23;;;;;;;15.00;3.22;;;;;;;;;;5103933;27;20104;-76
2021/03/16 00:54:49;;;;;;;10.50;2.42;;;;;;;;;;5137947;27;20030;-76
2021/03/16 00:57:15;;;;;;;10.50;3.53;;;;;;;;;;5138269;27;20037;-76
2021/03/16 00:59:41;;;;;;;19.55;2.72;;;;;;;;;;5120195;27;20031;-76
2021/03/16 01:02:08;;;;;;;12.25;2.67;;;;;;;;;;5118841;27;20035;-76
2021/03/16 01:04:34;;;;;;;17.17;2.60;;;;;;;;;;5136948;27;20071;-76
2021/03/16 01:06:59;;;;;;;16.85;3.58;;;;;;;;;;5135614;27;20039;-75
2021/03/16 01:09:24;;;;;;;15.32;3.80;;;;;;;;;;5136076;27;20027;-77
2021/03/16 01:11:50;;;;;;;18.20;2.88;;;;;;;;;;5139752;27;20476;-76
2021/03/16 01:14:16;;;;;;;15.98;3.00;;;;;;;;;;5119860;28;20534;-76
2021/03/16 01:16:41;;;;;;;15.73;3.25;;;;;;;;;;5138293;27;20031;-76
2021/03/16 01:19:07;;;;;;;19.38;3.65;;;;;;;;;;5119298;28;20058;-76
2021/03/16 01:21:32;;;;;;;19.00;3.42;;;;;;;;;;5137430;28;20386;-77
2021/03/16 01:23:58;;;;;;;26.83;3.28;;;;;;;;;;5136178;28;20510;-76
2021/03/16 01:26:23;;;;;;;18.80;4.50;;;;;;;;;;5135320;27;20050;-76
2021/03/16 01:28:49;;;;;;;24.02;3.40;;;;;;;;;;5135775;28;20049;-76
2021/03/16 01:31:14;;;;;;;17.83;3.78;;;;;;;;;;5137132;28;20118;-76
2021/03/16 01:33:40;;;;;;;29.40;4.78;;;;;;;;;;5117956;28;20038;-77
2021/03/16 01:36:05;;;;;;;22.20;4.70;;;;;;;;;;5136210;27;20071;-77
2021/03/16 01:38:31;;;;;;;19.80;3.92;;;;;;;;;;5135626;28;20038;-76
2021/03/16 01:40:56;;;;;;;15.23;4.30;;;;;;;;;;5136186;28;20035;-77
2021/03/16 01:43:29;;;;;;;12.77;2.80;;;;;;;;;;5120986;28;20039;-77
2021/03/16 01:45:55;;;;;;;18.50;3.85;;;;;;;;;;5120624;28;20426;-76
2021/03/16 01:48:24;;;;;;;25.90;3.90;;;;;;;;;;5104913;28;20039;-77
2021/03/16 01:50:50;;;;;;;15.98;3.03;;;;;;;;;;5102986;28;20043;-77
2021/03/16 01:53:17;;;;;;;18.50;2.95;;;;;;;;;;5137402;28;20035;-77
2021/03/16 01:55:43;;;;;;;20.15;4.75;;;;;;;;;;5137113;27;20530;-76
2021/03/16 01:58:08;;;;;;;28.48;4.80;;;;;;;;;;5137805;28;20039;-77
2021/03/16 02:00:52;;;;;;;19.80;3.25;;;;;;;;;;5136674;28;20049;-77
2021/03/16 02:03:36;;;;;;;19.02;3.38;;;;;;;;;;5134046;28;20112;-77
2021/03/16 02:06:37;;;;;;;18.77;3.75;;;;;;;;;;5118130;28;20038;-77
2021/03/16 02:09:39;;;;;;;23.65;3.15;;;;;;;;;;5134686;28;20080;-76
2021/03/16 02:12:31;;;;;;;18.95;3.70;;;;;;;;;;5136436;28;20114;-76
2021/03/16 02:15:17;;;;;;;21.50;2.90;;;;;;;;;;5136678;27;20050;-76
2021/03/16 02:18:09;;;;;;;17.35;3.65;;;;;;;;;;5120898;28;20105;-76
2021/03/16 02:21:19;;;;;;;17.30;3.20;;;;;;;;;;5123027;27;20172;-77
2021/03/16 02:24:08;;;;;;;18.48;3.15;;;;;;;;;;5122564;27;20050;-77
2021/03/16 02:27:09;;;;;;;15.35;3.80;;;;;;;;;;5137043;27;20041;-76
2021/03/16 02:29:58;;;;;;;13.63;3.88;;;;;;;;;;5138331;27;20422;-77
2021/03/16 02:32:45;;;;;;;12.65;2.97;;;;;;;;;;5122516;27;20046;-76
2021/03/16 02:35:30;;;;;;;13.48;3.35;;;;;;;;;;5123111;27;20046;-77
2021/03/16 02:38:18;;;;;;;19.15;2.80;;;;;;;;;;5123085;27;20034;-76
2021/03/16 02:41:05;;;;;;;24.17;3.95;;;;;;;;;;5138558;27;20057;-76
2021/03/16 02:43:49;;;;;;;9.77;3.03;;;;;;;;;;5138652;27;20125;-76
2021/03/16 02:46:34;;;;;;;26.35;5.45;;;;;;;;;;5138202;27;20104;-76
2021/03/16 02:49:20;;;;;;;8.80;3.03;;;;;;;;;;5139317;27;20049;-76
2021/03/16 02:52:05;;;;;;;17.35;2.47;;;;;;;;;;5124052;27;20125;-76
2021/03/16 02:54:51;;;;;;;19.15;3.10;;;;;;;;;;5118813;28;20047;-76
2021/03/16 02:57:38;;;;;;;16.00;3.33;;;;;;;;;;5103693;28;20039;-77
2021/03/16 03:00:23;;;;;;;8.82;2.80;;;;;;;;;;5119508;28;20545;-76
2021/03/16 03:03:07;;;;;;;13.70;3.05;;;;;;;;;;5104524;28;20149;-76
2021/03/16 03:05:52;;;;;;;12.65;2.67;;;;;;;;;;5119464;28;20047;-77
2021/03/16 03:08:38;;;;;;;16.77;3.17;;;;;;;;;;5119599;28;20103;-76
2021/03/16 03:11:22;;;;;;;25.02;3.50;;;;;;;;;;5119290;28;20042;-76
2021/03/16 03:14:08;;;;;;;20.70;3.67;;;;;;;;;;5120454;28;20059;-76
2021/03/16 03:16:54;;;;;;;15.85;3.00;;;;;;;;;;5120538;27;20046;-76
2021/03/16 03:19:38;;;;;;;15.60;3.00;;;;;;;;;;5123881;27;20074;-75
2021/03/16 03:22:56;;;;;;;26.13;4.05;;;;;;;;;;5137262;27;20096;-76
2021/03/16 03:25:41;;;;;;;;;;;;;;;;;;5141031;27;20050;-76
2021/03/16 03:28:27;;;;;;;16.08;3.50;;;;;;;;;;5140064;27;19922;-76
2021/03/16 03:31:12;;;;;;;16.90;3.17;;;;;;;;;;5140282;27;20083;-76
2021/03/16 03:33:57;;;;;;;16.40;4.25;;;;;;;;;;5141776;27;20515;-76
2021/03/16 03:36:43;;;;;;;24.30;4.35;;;;;;;;;;5140847;27;20046;-76
2021/03/16 03:39:31;;;;;;;24.30;3.58;;;;;;;;;;5141670;27;20456;-76
2021/03/16 03:42:17;;;;;;;21.92;4.95;;;;;;;;;;5141441;27;20049;-76
2021/03/16 03:45:04;;;;;;;14.70;2.78;;;;;;;;;;5140982;27;20118;-76
2021/03/16 03:47:49;;;;;;;11.07;3.10;;;;;;;;;;5142965;27;20062;-77
2021/03/16 03:50:34;;;;;;;18.85;4.55;;;;;;;;;;5141000;27;20042;-77
2021/03/16 03:53:19;;;;;;;18.00;3.30;;;;;;;;;;5140500;27;20461;-78
2021/03/16 03:56:04;;;;;;;18.67;3.30;;;;;;;;;;5138151;27;20046;-75
2021/03/16 03:58:49;;;;;;;21.48;3.90;;;;;;;;;;5137741;27;20468;-76
2021/03/16 04:01:34;;;;;;;22.88;3.63;;;;;;;;;;5137112;27;20445;-75
2021/03/16 04:04:18;;;;;;;19.75;3.00;;;;;;;;;;5137037;27;20369;-74
2021/03/16 04:07:03;;;;;;;20.98;3.28;;;;;;;;;;5136550;27;20092;-74
2021/03/16 04:09:46;;;;;;;15.98;3.47;;;;;;;;;;5135361;27;20041;-75
2021/03/16 04:12:31;;;;;;;16.10;4.05;;;;;;;;;;5135103;27;20041;-75
2021/03/16 04:15:16;;;;;;;15.20;2.88;;;;;;;;;;5135315;27;20073;-75
2021/03/16 04:18:01;;;;;;;29.70;4.38;;;;;;;;;;5134558;27;20095;-75
2021/03/16 04:20:45;;;;;;;15.30;4.18;;;;;;;;;;5135462;27;20054;-75
2021/03/16 04:23:29;;;;;;;19.27;4.65;;;;;;;;;;5135170;27;20049;-75
2021/03/16 04:26:13;;;;;;;20.35;3.92;;;;;;;;;;5135013;27;20081;-75
2021/03/16 04:28:57;;;;;;;22.90;3.50;;;;;;;;;;5135098;27;20166;-75
2021/03/16 04:31:41;;;;;;;24.33;4.30;;;;;;;;;;5134814;27;20054;-74
2021/03/16 04:34:25;;;;;;;20.27;3.88;;;;;;;;;;5134946;27;20046;-74
2021/03/16 04:37:09;;;;;;;22.52;4.20;;;;;;;;;;5134595;27;20042;-75
2021/03/16 04:39:54;;;;;;;22.08;3.60;;;;;;;;;;5135094;27;20092;-74
2021/03/16 04:42:38;;;;;;;20.55;4.50;;;;;;;;;;5133896;27;20081;-74
2021/03/16 04:45:21;;;;;;;20.75;3.70;;;;;;;;;;5134839;27;20420;-75
2021/03/16 04:48:06;;;;;;;22.05;3.67;;;;;;;;;;5134616;27;20049;-75
2021/03/16 04:50:49;;;;;;;25.38;5.63;;;;;;;;;;5114152;28;20046;-75
2021/03/16 04:53:33;;;;;;;12.82;2.83;;;;;;;;;;5114090;28;20081;-74
2021/03/16 04:56:17;;;;;;;13.60;3.35;;;;;;;;;;5113839;28;20042;-75
2021/03/16 04:59:01;;;;;;;19.23;3.05;;;;;;;;;;5114297;28;20082;-74
2021/03/16 05:01:45;;;;;;;16.08;3.72;;;;;;;;;;5113967;28;20082;-75
2021/03/16 05:04:29;;;;;;;24.52;3.60;;;;;;;;;;5113832;28;20100;-75
2021/03/16 05:07:13;;;;;;;17.13;3.03;;;;;;;;;;5119989;27;20100;-75
2021/03/16 05:09:57;;;;;;;24.13;3.75;;;;;;;;;;5134543;27;20134;-75
2021/03/16 05:12:41;;;;;;;26.27;4.97;;;;;;;;;;5134600;27;20050;-75
2021/03/16 05:15:25;;;;;;;20.55;2.83;;;;;;;;;;5134276;27;20103;-75
2021/03/16 05:18:09;;;;;;;26.02;5.40;;;;;;;;;;5134225;28;20103;-75
2021/03/16 05:20:53;;;;;;;17.75;2.80;;;;;;;;;;5134362;28;20046;-75
2021/03/16 05:23:37;;;;;;;28.85;4.35;;;;;;;;;;5134320;28;20050;-75
2021/03/16 05:26:22;;;;;;;22.15;3.88;;;;;;;;;;5133574;27;20042;-74
2021/03/16 05:29:06;;;;;;;20.20;3.47;;;;;;;;;;5134344;28;20524;-75
2021/03/16 05:31:50;;;;;;;15.10;3.20;;;;;;;;;;5134192;28;20487;-75
2021/03/16 05:34:34;;;;;;;20.38;3.33;;;;;;;;;;5134291;27;20065;-75
2021/03/16 05:37:17;;;;;;;18.17;3.10;;;;;;;;;;5134147;28;20068;-75
2021/03/16 05:40:03;;;;;;;22.60;3.58;;;;;;;;;;5134112;28;20077;-74
2021/03/16 05:42:47;;;;;;;22.88;5.43;;;;;;;;;;5118806;28;20103;-75
2021/03/16 05:45:31;;;;;;;20.92;3.90;;;;;;;;;;5133734;27;20058;-75
2021/03/16 05:48:15;;;;;;;22.77;6.05;;;;;;;;;;5134049;28;20096;-75
2021/03/16 05:51:00;;;;;;;14.77;3.28;;;;;;;;;;5127659;28;20055;-75
2021/03/16 05:53:50;;;;;;;20.92;5.00;;;;;;;;;;5114064;28;20051;-75
2021/03/16 05:56:34;;;;;;;19.42;3.58;;;;;;;;;;5116752;28;20046;-75
2021/03/16 05:59:19;;;;;;;17.58;3.67;;;;;;;;;;5116629;28;20454;-75
2021/03/16 06:02:04;;;;;;;22.98;3.38;;;;;;;;;;5116793;28;20500;-75
2021/03/16 06:04:48;;;;;;;23.27;3.72;;;;;;;;;;5117062;28;20125;-75
2021/03/16 06:07:32;;;;;;;20.73;3.58;;;;;;;;;;5117047;28;20100;-75
2021/03/16 06:10:19;;;;;;;17.95;2.85;;;;;;;;;;5117319;28;20045;-75
2021/03/16 06:13:15;;;;;;;22.38;3.92;;;;;;;;;;5117081;28;20042;-75
2021/03/16 06:15:59;;;;;;;21.10;3.50;;;;;;;;;;5117135;28;20134;-75
2021/03/16 06:18:45;;;;;;;22.08;4.07;;;;;;;;;;5117090;28;20474;-75
2021/03/16 06:21:30;;;;;;;22.25;4.13;;;;;;;;;;5120532;27;20054;-75
2021/03/16 06:24:14;;;;;;;20.35;3.67;;;;;;;;;;5137395;27;20092;-74
2021/03/16 06:26:58;;;;;;;16.52;3.33;;;;;;;;;;5137313;27;20042;-75
2021/03/16 06:29:42;;;;;;;15.18;3.83;;;;;;;;;;5136514;27;20188;-75
2021/03/16 06:32:36;;;;;;;11.80;2.67;;;;;;;;;;5137508;27;20089;-74
2021/03/16 06:35:21;;;;;;;19.10;3.90;;;;;;;;;;5137295;27;20533;-74
2021/03/16 06:38:11;;;;;;;14.13;2.95;;;;;;;;;;5137383;27;20058;-75
2021/03/16 06:41:06;;;;;;;18.10;3.08;;;;;;;;;;5121642;27;20100;-75
2021/03/16 06:43:59;;;;;;;18.92;4.78;;;;;;;;;;5137214;27;20396;-74
2021/03/16 06:46:43;;;;;;;15.77;3.22;;;;;;;;;;5136700;27;20565;-75
2021/03/16 06:49:32;;;;;;;16.25;3.58;;;;;;;;;;5136473;27;20038;-75
2021/03/16 06:52:16;;;;;;;16.80;3.72;;;;;;;;;;5136845;27;20100;-74
2021/03/16 06:55:18;;;;;;;16.80;3.05;;;;;;;;;;5136790;27;20041;-75
2021/03/16 06:58:08;;;;;;;18.55;3.63;;;;;;;;;;5136834;27;20134;-75
2021/03/16 07:01:16;;;;;;;18.50;3.03;;;;;;;;;;5136175;27;20049;-75
2021/03/16 07:04:17;;;;;;;18.83;3.75;;;;;;;;;;5116536;28;20066;-75
2021/03/16 07:07:01;;;;;;;20.42;3.58;;;;;;;;;;5114990;28;20118;-75
2021/03/16 07:09:46;;;;;;;19.77;3.70;;;;;;;;;;5116013;28;20097;-75
2021/03/16 07:12:35;;;;;;;18.25;3.22;;;;;;;;;;5100555;28;20042;-75
2021/03/16 07:15:19;;;;;;;22.27;5.50;;;;;;;;;;5115762;28;20448;-74
2021/03/16 07:18:08;;;;;;;18.83;4.00;;;;;;;;;;5120276;27;20046;-75
2021/03/16 07:20:57;;;;;;;17.52;4.45;;;;;;;;;;5136250;27;20046;-73
2021/03/16 07:23:48;;;;;;;14.45;3.45;;;;;;;;;;5137007;27;20042;-76
2021/03/16 07:26:32;;;;;;;17.35;3.67;;;;;;;;;;5138638;27;20091;-79
2021/03/16 07:29:17;;;;;;;21.30;3.10;;;;;;;;;;5140936;27;20102;-77
2021/03/16 07:32:04;;;;;;;28.00;5.05;;;;;;;;;;5134937;27;20042;-77
2021/03/16 07:34:49;;;;;;;21.77;3.35;;;;;;;;;;5121275;27;20434;-76
2021/03/16 07:37:34;;;;;;;23.30;3.45;;;;;;;;;;5135799;27;20042;-77
2021/03/16 07:40:19;;;;;;;14.98;2.63;;;;;;;;;;5137786;27;20443;-77
2021/03/16 07:43:08;;;;;;;24.45;4.00;;;;;;;;;;5135732;27;20523;-76
2021/03/16 07:45:52;;;;;;;14.95;2.75;;;;;;;;;;5135775;27;20393;-77
2021/03/16 07:48:41;;;;;;;13.05;2.90;;;;;;;;;;5124530;27;20054;-77
2021/03/16 07:51:32;;;;;;;26.20;4.22;;;;;;;;;;5115326;28;20104;-77
2021/03/16 07:54:18;;;;;;;21.15;3.70;;;;;;;;;;5114108;28;20534;-77
2021/03/16 07:57:03;;;;;;;15.65;3.53;;;;;;;;;;5115250;28;20089;-77
2021/03/16 07:59:57;;;;;;;22.95;3.58;;;;;;;;;;5115200;28;20043;-77
2021/03/16 08:02:43;;;;;;;19.08;3.30;;;;;;;;;;5114574;28;20201;-77
2021/03/16 08:05:41;;;;;;;18.20;3.08;;;;;;;;;;5114887;28;20047;-78
2021/03/16 08:08:25;;;;;;;17.95;2.83;;;;;;;;;;5114746;28;20039;-77
2021/03/16 08:11:13;;;;;;;15.45;3.40;;;;;;;;;;5115171;28;20042;-78
2021/03/16 08:14:02;;;;;;;21.73;3.63;;;;;;;;;;5099459;28;20434;-77
2021/03/16 08:16:46;;;;;;;31.65;5.80;;;;;;;;;;5114929;28;20046;-76
2021/03/16 08:19:38;;;;;;;22.10;4.80;;;;;;;;;;5116191;28;20504;-77
2021/03/16 08:22:24;;;;;;;17.50;3.13;;;;;;;;;;5116336;27;20046;-78
2021/03/16 08:25:10;;;;;;;18.02;3.78;;;;;;;;;;5137977;27;20092;-78
2021/03/16 08:27:54;;;;;;;14.85;3.10;;;;;;;;;;5136311;27;20042;-78
2021/03/16 08:30:40;;;;;;;13.98;2.92;;;;;;;;;;5138067;27;20123;-78
2021/03/16 08:33:25;;;;;;;13.57;3.38;;;;;;;;;;5137903;27;20058;-78
2021/03/16 08:36:10;;;;;;;22.83;5.63;;;;;;;;;;5138114;27;20163;-78
2021/03/16 08:38:54;;;;;;;18.52;3.35;;;;;;;;;;5138002;27;20049;-79
2021/03/16 08:41:38;;;;;;;20.13;3.65;;;;;;;;;;5137760;27;20087;-78
2021/03/16 08:44:23;;;;;;;17.95;4.30;;;;;;;;;;5137672;27;20095;-81
2021/03/16 08:47:10;;;;;;;17.05;3.22;;;;;;;;;;5137080;27;20072;-80
2021/03/16 08:49:56;;;;;;;18.73;3.88;;;;;;;;;;5126770;27;20123;-78
2021/03/16 08:52:39;;;;;;;20.33;4.55;;;;;;;;;;5116844;28;20089;-78
2021/03/16 08:55:26;;;;;;;32.13;5.32;;;;;;;;;;5117084;28;20055;-78
2021/03/16 08:58:10;;;;;;;20.88;3.80;;;;;;;;;;5116394;28;20046;-78
2021/03/16 09:00:54;;;;;;;22.83;3.88;;;;;;;;;;5117920;28;20077;-78
2021/03/16 09:03:38;;;;;;;16.88;3.25;;;;;;;;;;5116065;28;20046;-77
2021/03/16 09:06:22;;;;;;;18.02;3.38;;;;;;;;;;5116593;28;20042;-77
2021/03/16 09:09:07;;;;;;;14.85;4.00;;;;;;;;;;5114401;28;20046;-76
2021/03/16 09:11:53;;;;;;;30.00;5.25;;;;;;;;;;5114079;28;20552;-77
2021/03/16 09:14:37;;;;;;;28.40;3.80;;;;;;;;;;5113746;28;20491;-77
2021/03/16 09:17:21;;;;;;;15.55;3.03;;;;;;;;;;5113660;28;20665;-77
2021/03/16 09:20:21;;;;;;;20.52;2.90;;;;;;;;;;5125176;28;20061;-76
2021/03/16 09:23:07;;;;;;;22.48;3.83;;;;;;;;;;5133694;28;20122;-77
2021/03/16 09:25:52;;;;;;;10.32;3.20;;;;;;;;;;5135888;27;20404;-76
2021/03/16 09:28:37;;;;;;;16.65;3.17;;;;;;;;;;5134602;27;20043;-76
2021/03/16 09:31:24;;;;;;;15.85;3.03;;;;;;;;;;5139000;27;20546;-78
2021/03/16 09:34:09;;;;;;;12.30;2.45;;;;;;;;;;5123842;27;20560;-77
2021/03/16 09:37:13;;;;;;;17.40;3.42;;;;;;;;;;5138831;27;20038;-76
2021/03/16 09:40:07;;;;;;;10.23;2.17;;;;;;;;;;5107769;27;20141;-75
2021/03/16 09:42:49;;;;;;;17.60;2.72;;;;;;;;;;5120040;27;20380;-77
2021/03/16 09:45:20;;;;;;;9.00;2.38;;;;;;;;;;5137552;27;20027;-77
2021/03/16 09:47:46;;;;;;;11.73;2.45;;;;;;;;;;5138078;27;20130;-76
2021/03/16 09:50:29;;;;;;;7.55;2.10;;;;;;;;;;5137472;27;20049;-76
2021/03/16 09:53:03;;;;;;;12.60;3.20;;;;;;;;;;5138191;27;20381;-76
2021/03/16 09:55:29;;;;;;;10.38;3.15;;;;;;;;;;5137863;27;20039;-77
2021/03/16 09:57:55;;;;;;;15.18;3.15;;;;;;;;;;5119750;27;20034;-77
2021/03/16 10:00:25;;;;;;;13.65;3.05;;;;;;;;;;5137810;27;20027;-77
2021/03/16 10:03:01;;;;;;;14.98;2.42;;;;;;;;;;5119621;27;20039;-77
2021/03/16 10:05:27;;;;;;;15.02;2.75;;;;;;;;;;5137837;27;20039;-77
2021/03/16 10:07:52;;;;;;;8.07;2.10;;;;;;;;;;5137614;27;20039;-77
2021/03/16 10:10:26;;;;;;;11.75;3.28;;;;;;;;;;5137635;27;20058;-77
2021/03/16 10:12:54;;;;;;;14.55;2.30;;;;;;;;;;5119511;27;20442;-77
2021/03/16 10:15:36;;;;;;;11.00;2.97;;;;;;;;;;5137428;27;20074;-77
2021/03/16 10:18:03;;;;;;;7.60;2.70;;;;;;;;;;5137499;27;20087;-76
2021/03/16 10:20:38;;;;;;;17.33;3.13;;;;;;;;;;5137629;27;20035;-77
2021/03/16 10:23:05;;;;;;;16.65;2.88;;;;;;;;;;5137463;27;20042;-77
2021/03/16 10:25:32;;;;;;;10.15;2.40;;;;;;;;;;5137162;27;20063;-77
2021/03/16 10:28:09;;;;;;;10.90;2.28;;;;;;;;;;5136988;27;20027;-76
2021/03/16 10:30:38;;;;;;;9.18;2.10;;;;;;;;;;5138666;27;20042;-76
2021/03/16 10:33:05;;;;;;;10.18;2.55;;;;;;;;;;5119902;27;20038;-76
2021/03/16 10:35:31;;;;;;;10.15;2.65;;;;;;;;;;5118813;27;20124;-77
2021/03/16 10:37:57;;;;;;;5.85;2.00;;;;;;;;;;5118960;27;20066;-77
2021/03/16 10:40:23;;;;;;;7.75;2.08;;;;;;;;;;5137161;27;20087;-76
2021/03/16 10:42:49;;;;;;;5.03;2.03;;;;;;;;;;5137192;27;20125;-76
2021/03/16 10:45:15;;;;;;;8.85;2.17;;;;;;;;;;5136744;27;20053;-77
2021/03/16 10:47:41;;;;;;;6.18;2.10;;;;;;;;;;5118505;27;20035;-77
2021/03/16 10:50:08;;;;;;;8.85;2.28;;;;;;;;;;5117976;27;20521;-77
2021/03/16 10:52:33;;;;;;;7.03;2.10;;;;;;;;;;5137058;27;20095;-77
2021/03/16 10:54:59;;;;;;;7.68;1.90;;;;;;;;;;5136556;27;20055;-77
2021/03/16 10:57:25;;;;;;;9.48;2.05;;;;;;;;;;5137026;27;20066;-77
2021/03/16 10:59:50;;;;;;;16.38;3.22;;;;;;;;;;5128871;27;20028;-77
2021/03/16 11:02:16;;;;;;;10.10;2.33;;;;;;;;;;5116303;28;20047;-77
2021/03/16 11:04:41;;;;;;;9.45;2.92;;;;;;;;;;5098132;28;20039;-77
2021/03/16 11:07:07;;;;;;;11.82;2.15;;;;;;;;;;5115702;28;20042;-77
2021/03/16 11:09:32;;;;;;;9.27;2.28;;;;;;;;;;5116109;28;20110;-76
2021/03/16 11:11:58;;;;;;;7.38;2.08;;;;;;;;;;5116095;28;20154;-77
2021/03/16 11:14:23;;;;;;;15.02;2.22;;;;;;;;;;5116054;28;20469;-77
2021/03/16 11:16:49;;;;;;;7.38;2.22;;;;;;;;;;5115841;28;20038;-77
2021/03/16 11:19:16;;;;;;;8.60;1.80;;;;;;;;;;5115831;28;20071;-77
2021/03/16 11:21:43;;;;;;;7.55;1.80;;;;;;;;;;5116014;28;20071;-76
2021/03/16 11:24:09;;;;;;;9.15;2.10;;;;;;;;;;5097444;28;20028;-77
2021/03/16 11:26:34;;;;;;;4.95;1.50;;;;;;;;;;5124658;27;20066;-75
2021/03/16 11:29:01;;;;;;;10.48;2.05;;;;;;;;;;5136059;27;20066;-77
2021/03/16 11:31:27;;;;;;;9.60;1.88;;;;;;;;;;5136252;27;20023;-77
2021/03/16 11:34:11;;;;;;;6.93;1.88;;;;;;;;;;5136339;27;20123;-76
2021/03/16 11:36:55;;;;;;;8.13;2.72;;;;;;;;;;5136288;27;20050;-77
2021/03/16 11:39:41;;;;;;;7.75;1.95;;;;;;;;;;5136060;27;20067;-77
2021/03/16 11:42:25;;;;;;;8.32;1.70;;;;;;;;;;5135733;27;20047;-77
2021/03/16 11:45:09;;;;;;;7.75;1.92;;;;;;;;;;5135705;27;20045;-75
2021/03/16 11:47:53;;;;;;;10.88;2.30;;;;;;;;;;5136369;27;20046;-77
2021/03/16 11:50:37;;;;;;;6.00;1.52;;;;;;;;;;5136061;27;20042;-78
2021/03/16 11:53:21;;;;;;;7.00;1.77;;;;;;;;;;5134261;27;20161;-74
2021/03/16 11:56:05;;;;;;;6.63;1.98;;;;;;;;;;5136170;27;20088;-77
2021/03/16 11:58:49;;;;;;;5.28;1.33;;;;;;;;;;5135737;27;20195;-76
2021/03/16 12:01:33;;;;;;;5.32;1.70;;;;;;;;;;5133317;27;20408;-78
2021/03/16 12:04:17;;;;;;;3.90;1.48;;;;;;;;;;5136382;27;20078;-76
2021/03/16 12:07:01;;;;;;;4.47;1.70;;;;;;;;;;5135396;27;20100;-75
2021/03/16 12:09:45;;;;;;;3.13;1.27;;;;;;;;;;5119811;27;20091;-76
2021/03/16 12:12:29;;;;;;;6.97;1.88;;;;;;;;;;5134424;27;20547;-76
2021/03/16 12:15:19;;;;;;;9.50;2.03;;;;;;;;;;5135197;27;20047;-76
2021/03/16 12:18:04;;;;;;;5.13;1.67;;;;;;;;;;5135281;27;20051;-76
2021/03/16 12:20:50;;;;;;;5.78;1.60;;;;;;;;;;5134471;27;20046;-76
2021/03/16 12:23:34;;;;;;;6.03;1.58;;;;;;;;;;5135210;27;20050;-76
2021/03/16 12:26:18;;;;;;;6.28;1.55;;;;;;;;;;5135248;27;20100;-75
2021/03/16 12:29:02;;;;;;;8.52;1.80;;;;;;;;;;5135119;27;20533;-75
2021/03/16 12:31:46;;;;;;;7.07;1.45;;;;;;;;;;5134999;27;20046;-75
2021/03/16 12:34:30;;;;;;;5.45;1.38;;;;;;;;;;5134926;27;20050;-76
2021/03/16 12:37:14;;;;;;;10.15;3.13;;;;;;;;;;5134686;27;20046;-75
2021/03/16 12:39:58;;;;;;;5.95;2.90;;;;;;;;;;5134940;27;20521;-75
2021/03/16 12:42:42;;;;;;;2.28;0.85;;;;;;;;;;5134616;27;20102;-75
2021/03/16 12:45:26;;;;;;;3.45;1.15;;;;;;;;;;5134348;27;20129;-76
2021/03/16 12:48:10;;;;;;;3.30;1.45;;;;;;;;;;5134657;27;20088;-76
2021/03/16 12:50:54;;;;;;;2.40;1.05;;;;;;;;;;5133900;27;20037;-75
2021/03/16 12:53:38;;;;;;;7.25;1.15;;;;;;;;;;5134604;27;20175;-76
2021/03/16 12:56:23;;;;;;;1.95;0.82;;;;;;;;;;5133996;27;20038;-76
2021/03/16 12:59:07;;;;;;;3.85;1.00;;;;;;;;;;5134820;27;20393;-76
2021/03/16 13:01:51;;;;;;;2.90;1.00;;;;;;;;;;5134607;27;20038;-75
2021/03/16 13:04:35;;;;;;;7.22;1.15;;;;;;;;;;5133415;27;20041;-76
2021/03/16 13:07:19;;;;;;;5.70;1.80;;;;;;;;;;5134678;27;20129;-76
2021/03/16 13:10:04;;;;;;;8.82;1.55;;;;;;;;;;5133495;27;20504;-76
2021/03/16 13:12:47;;;;;;;5.97;1.55;;;;;;;;;;5134577;27;20126;-74
2021/03/16 13:15:31;;;;;;;11.25;3.40;;;;;;;;;;5134546;27;20507;-75
2021/03/16 13:18:15;;;;;;;3.42;1.42;;;;;;;;;;5134253;27;20519;-75
2021/03/16 13:21:00;;;;;;;7.75;1.73;;;;;;;;;;5118119;28;20143;-76
2021/03/16 13:23:44;;;;;;;5.22;1.27;;;;;;;;;;5113933;28;20072;-76
2021/03/16 13:26:28;;;;;;;4.95;1.45;;;;;;;;;;5113419;28;20111;-76
2021/03/16 13:29:13;;;;;;;3.92;1.00;;;;;;;;;;5113988;28;20078;-76
2021/03/16 13:31:57;;;;;;;3.92;1.52;;;;;;;;;;5098292;28;20054;-76
2021/03/16 13:34:40;;;;;;;1.48;0.60;;;;;;;;;;5107367;27;20037;-75
2021/03/16 13:37:25;;;;;;;1.15;0.70;;;;;;;;;;5134251;28;20034;-75
2021/03/16 13:40:09;;;;;;;7.85;1.30;;;;;;;;;;5134236;28;20046;-76
2021/03/16 13:42:53;;;;;;;2.78;0.93;;;;;;;;;;5134150;28;20488;-76
2021/03/16 13:45:37;;;;;;;3.67;1.10;;;;;;;;;;5133927;27;20069;-76
2021/03/16 13:48:21;;;;;;;4.78;0.75;;;;;;;;;;5114076;28;20050;-76
2021/03/16 13:51:05;;;;;;;2.72;1.02;;;;;;;;;;5133875;28;20129;-76
2021/03/16 13:53:49;;;;;;;5.38;1.20;;;;;;;;;;5118474;28;20518;-76
2021/03/16 13:56:33;;;;;;;3.22;1.08;;;;;;;;;;5133916;27;20038;-75
2021/03/16 13:59:17;;;;;;;1.95;0.95;;;;;;;;;;5134167;28;20069;-76
2021/03/16 14:02:01;;;;;;;7.95;0.93;;;;;;;;;;5118385;28;20042;-76
2021/03/16 14:04:45;;;;;;;4.55;1.20;;;;;;;;;;5133764;27;20046;-75
2021/03/16 14:07:29;;;;;;;4.53;1.60;;;;;;;;;;5133899;28;20173;-76
2021/03/16 14:10:14;;;;;;;7.57;1.58;;;;;;;;;;5133977;28;20050;-75
2021/03/16 14:12:59;;;;;;;5.45;1.60;;;;;;;;;;5133853;28;20092;-75
2021/03/16 14:15:43;;;;;;;6.05;2.00;;;;;;;;;;5136002;27;20046;-76
2021/03/16 14:18:27;;;;;;;7.15;1.55;;;;;;;;;;5137460;27;20579;-75
2021/03/16 14:21:11;;;;;;;3.65;1.25;;;;;;;;;;5137691;27;20047;-76
2021/03/16 14:23:55;;;;;;;3.33;1.13;;;;;;;;;;5137848;27;20046;-76
2021/03/16 14:26:39;;;;;;;6.70;1.50;;;;;;;;;;5137209;27;20041;-74
2021/03/16 14:29:23;;;;;;;6.20;1.30;;;;;;;;;;5137332;27;20103;-76
2021/03/16 14:32:07;;;;;;;5.68;1.63;;;;;;;;;;5137570;27;20103;-77
2021/03/16 14:34:51;;;;;;;5.32;1.58;;;;;;;;;;5121796;27;20118;-77
2021/03/16 14:37:35;;;;;;;3.70;1.65;;;;;;;;;;5121851;27;20450;-77
2021/03/16 14:40:19;;;;;;;96.40;5.93;;;;;;;;;;5137530;27;20131;-77
2021/03/16 14:43:02;;;;;;;4.00;1.30;;;;;;;;;;5137040;27;20046;-77
2021/03/16 14:45:47;;;;;;;4.22;1.15;;;;;;;;;;5136913;27;20078;-74
2021/03/16 14:48:31;;;;;;;7.45;2.35;;;;;;;;;;5137095;27;20515;-77
2021/03/16 14:51:19;;;;;;;6.28;1.73;;;;;;;;;;5136471;27;20564;-77
2021/03/16 14:54:03;;;;;;;4.25;1.20;;;;;;;;;;5137395;27;20042;-77
2021/03/16 14:56:47;;;;;;;5.75;1.20;;;;;;;;;;5138624;27;20061;-77
2021/03/16 14:59:31;;;;;;;3.00;1.20;;;;;;;;;;5137423;27;20050;-77
2021/03/16 15:02:15;;;;;;;5.88;1.77;;;;;;;;;;5136832;27;20046;-77
2021/03/16 15:04:59;;;;;;;4.35;1.17;;;;;;;;;;5137026;27;20213;-77
2021/03/16 15:07:43;;;;;;;4.55;1.20;;;;;;;;;;5136266;27;20046;-77
2021/03/16 15:10:27;;;;;;;1.80;0.90;;;;;;;;;;5121297;27;20408;-77
2021/03/16 15:13:11;;;;;;;1.05;0.68;;;;;;;;;;5136707;27;20502;-77
2021/03/16 15:15:56;;;;;;;2.10;0.98;;;;;;;;;;5136618;27;20496;-77
2021/03/16 15:18:40;;;;;;;3.05;0.70;;;;;;;;;;5136545;27;20046;-77
2021/03/16 15:21:24;;;;;;;2.20;1.10;;;;;;;;;;5135719;27;20046;-77
2021/03/16 15:24:09;;;;;;;7.97;1.05;;;;;;;;;;5136580;27;20120;-77
2021/03/16 15:26:53;;;;;;;3.33;0.88;;;;;;;;;;5135488;27;20046;-77
2021/03/16 15:29:37;;;;;;;2.33;1.10;;;;;;;;;;5135741;27;20092;-77
2021/03/16 15:32:21;;;;;;;2.60;1.00;;;;;;;;;;5120230;27;20050;-77
2021/03/16 15:35:07;;;;;;;4.93;0.93;;;;;;;;;;5134733;27;20054;-77
2021/03/16 15:37:51;;;;;;;3.35;1.20;;;;;;;;;;5136419;27;20042;-77
2021/03/16 15:40:34;;;;;;;2.83;1.10;;;;;;;;;;5120511;27;20077;-77
2021/03/16 15:43:18;;;;;;;6.00;1.30;;;;;;;;;;5135819;27;20077;-77
2021/03/16 15:46:04;;;;;;;2.47;1.10;;;;;;;;;;5120038;27;20090;-77
2021/03/16 15:48:48;;;;;;;3.03;1.00;;;;;;;;;;5135694;27;20096;-77
2021/03/16 15:51:32;;;;;;;2.70;1.10;;;;;;;;;;5135956;27;20042;-77
2021/03/16 15:54:16;;;;;;;4.40;1.60;;;;;;;;;;5120310;27;20042;-77